Quentin, Mississippi
Current Conditions -  °F | °C
As of 11:55 AM on Monday 24 Nov 2014 (Local Time) from K1R7 Reporting Station
Clear Clear  
Wind Chill: 16°   Ceiling: Unl
Heat Index: 16°   Visibility: 10mi
Dew Point:   Wind: 9mph
Humidity: 55%   Direction: 320°NW
Pressure: 29.94"   Gusts: NA
Location:  31.5295°N, 90.7634°W
Report Text: K1R7 241755Z AUTO 32008KT 10SM CLR 16/07 A2994 RMK AO2
Loading
Personal Weather Stations






























Interactive Weather Map New forecast layout! Learn more

10-Day Weather Forecast

Advertisements
Track Severe Weather on mobile